Forside
METAR-TAF:

METAR-TAF

Lufthavne :

Moline, Illinois, USA

Breddekreds: 41-27-05N, længdekreds: 090-30-53W, højde: 179 m

Aktuelle vejr

Denne rapport blev lavet for 8 minutter siden, kl. 08:52 UTC
Vind 4 kt fra vestsydvest
Temperatur 13°C
Fugtighed 62%
Tryk 1015 hPa
Sigt: 16.1 km
skyfri

METAR: KMLI 260852Z AUTO 25004KT 10SM CLR 13/06 A2996 RMK AO2 SLP143 T01330061 58005

Tid: 04:00 (09:00 UTC)

Vejrudsigter

Denne rapport blev lavet for 3 timer og 38 minutter siden, kl. 05:22 UTC
Foreløbig gælder fra 26 på 06 UTC til 27 på 06 UTC
Vind 8 kt fra sydvest
Sigt: 10 km
skyfri
Fra 26 på 1500 UTC
Vind 15 kt fra sydsydvest med vindstød på up til 24 kt
Sigt: 10 km
Brudte skyer i en højde af 15000 ft
Fra 26 på 2300 UTC
Vind 10 kt fra syd
Sigt: 10 km
skyfri

TAF: KMLI 260522Z 2606/2706 22008KT P6SM SKC FM261500 21015G24KT P6SM BKN150 FM262300 19010KT P6SM SKC WS012/23045KT

Vejrobservationer og prognoser fra mere end 4000 lufthavne (METAR og TAF).

De gule og røde prikker repræsenterer de meteorologiske stationer.

Flyt musen over at se navnet på stationen.

Så klik over at se vejr observationer og prognoser.

At skifte det kort: Klik på de grønne knapper med et sort kors for at zoome ind; på den grønne knap med en bindestreg for at zoome ud; eller på de grønne pile for tilstødende kort.


METAR-TAF: